sensor_id;sensor_type;location;lat;lon;timestamp;temperature;humidity
38265;DHT22;24062;47.480;8.768;2023-02-16T00:00:15;-0.20;63.00
38265;DHT22;24062;47.480;8.768;2023-02-16T00:02:44;-0.40;63.40
38265;DHT22;24062;47.480;8.768;2023-02-16T00:05:21;-0.40;63.70
38265;DHT22;24062;47.480;8.768;2023-02-16T00:07:48;-0.30;63.60
38265;DHT22;24062;47.480;8.768;2023-02-16T00:10:15;-0.20;63.50
38265;DHT22;24062;47.480;8.768;2023-02-16T00:12:42;-0.20;63.30
38265;DHT22;24062;47.480;8.768;2023-02-16T00:15:26;-0.30;63.40
38265;DHT22;24062;47.480;8.768;2023-02-16T00:17:57;-0.30;63.50
38265;DHT22;24062;47.480;8.768;2023-02-16T00:20:24;-0.40;63.60
38265;DHT22;24062;47.480;8.768;2023-02-16T00:22:51;-0.30;63.60
38265;DHT22;24062;47.480;8.768;2023-02-16T00:25:18;-0.30;63.40
38265;DHT22;24062;47.480;8.768;2023-02-16T00:27:45;-0.30;63.50
38265;DHT22;24062;47.480;8.768;2023-02-16T00:30:14;-0.40;63.60
38265;DHT22;24062;47.480;8.768;2023-02-16T00:32:41;-0.40;63.90
38265;DHT22;24062;47.480;8.768;2023-02-16T00:35:14;-0.40;64.00
38265;DHT22;24062;47.480;8.768;2023-02-16T00:37:41;-0.40;64.00
38265;DHT22;24062;47.480;8.768;2023-02-16T00:40:08;-0.50;63.70
38265;DHT22;24062;47.480;8.768;2023-02-16T00:42:36;-0.40;64.00
38265;DHT22;24062;47.480;8.768;2023-02-16T00:45:04;-0.40;63.90
38265;DHT22;24062;47.480;8.768;2023-02-16T00:47:34;-0.40;63.90
38265;DHT22;24062;47.480;8.768;2023-02-16T00:50:05;-0.40;63.90
38265;DHT22;24062;47.480;8.768;2023-02-16T00:52:35;-0.40;63.80
38265;DHT22;24062;47.480;8.768;2023-02-16T00:55:05;-0.50;64.00
38265;DHT22;24062;47.480;8.768;2023-02-16T00:57:36;-0.50;64.00
38265;DHT22;24062;47.480;8.768;2023-02-16T01:00:07;-0.50;64.00
38265;DHT22;24062;47.480;8.768;2023-02-16T01:02:38;-0.60;64.00
38265;DHT22;24062;47.480;8.768;2023-02-16T01:05:06;-0.60;63.90
38265;DHT22;24062;47.480;8.768;2023-02-16T01:07:34;-0.50;64.30
38265;DHT22;24062;47.480;8.768;2023-02-16T01:10:19;-0.50;64.40
38265;DHT22;24062;47.480;8.768;2023-02-16T01:13:03;-0.40;64.40
38265;DHT22;24062;47.480;8.768;2023-02-16T01:15:30;-0.60;63.90
38265;DHT22;24062;47.480;8.768;2023-02-16T01:17:57;-0.60;64.10
38265;DHT22;24062;47.480;8.768;2023-02-16T01:20:26;-0.50;64.10
38265;DHT22;24062;47.480;8.768;2023-02-16T01:22:54;-0.70;64.00
38265;DHT22;24062;47.480;8.768;2023-02-16T01:25:22;-0.70;64.50
38265;DHT22;24062;47.480;8.768;2023-02-16T01:27:49;-0.80;64.60
38265;DHT22;24062;47.480;8.768;2023-02-16T01:30:18;-0.90;65.10
38265;DHT22;24062;47.480;8.768;2023-02-16T01:32:45;-0.90;65.40
38265;DHT22;24062;47.480;8.768;2023-02-16T01:35:16;-0.80;65.70
38265;DHT22;24062;47.480;8.768;2023-02-16T01:37:43;-0.80;65.60
38265;DHT22;24062;47.480;8.768;2023-02-16T01:40:21;-0.80;65.50
38265;DHT22;24062;47.480;8.768;2023-02-16T01:42:55;-0.70;65.80
38265;DHT22;24062;47.480;8.768;2023-02-16T01:45:27;-0.60;65.70
38265;DHT22;24062;47.480;8.768;2023-02-16T01:48:01;-0.50;65.50
38265;DHT22;24062;47.480;8.768;2023-02-16T01:50:43;-0.50;65.30
38265;DHT22;24062;47.480;8.768;2023-02-16T01:53:17;-0.50;65.10
38265;DHT22;24062;47.480;8.768;2023-02-16T01:55:50;-0.50;65.30
38265;DHT22;24062;47.480;8.768;2023-02-16T01:58:28;-0.60;65.50
38265;DHT22;24062;47.480;8.768;2023-02-16T02:04:23;-0.80;67.80
38265;DHT22;24062;47.480;8.768;2023-02-16T02:07:12;-0.70;68.40
38265;DHT22;24062;47.480;8.768;2023-02-16T02:09:44;-0.70;68.20
38265;DHT22;24062;47.480;8.768;2023-02-16T02:12:21;-0.60;68.20
38265;DHT22;24062;47.480;8.768;2023-02-16T02:14:50;-0.60;67.90
38265;DHT22;24062;47.480;8.768;2023-02-16T02:17:19;-0.50;68.10
38265;DHT22;24062;47.480;8.768;2023-02-16T02:19:53;-0.50;67.90
38265;DHT22;24062;47.480;8.768;2023-02-16T02:22:47;-0.60;67.70
38265;DHT22;24062;47.480;8.768;2023-02-16T02:28:38;-0.60;67.80
38265;DHT22;24062;47.480;8.768;2023-02-16T02:31:18;-0.60;67.80
38265;DHT22;24062;47.480;8.768;2023-02-16T02:33:53;-0.60;67.90
38265;DHT22;24062;47.480;8.768;2023-02-16T02:36:32;-0.70;67.90
38265;DHT22;24062;47.480;8.768;2023-02-16T02:39:13;-0.70;67.90
38265;DHT22;24062;47.480;8.768;2023-02-16T02:41:49;-0.60;67.90
38265;DHT22;24062;47.480;8.768;2023-02-16T02:44:33;-0.70;67.90
38265;DHT22;24062;47.480;8.768;2023-02-16T02:47:03;-0.80;68.10
38265;DHT22;24062;47.480;8.768;2023-02-16T02:49:30;-0.80;68.10
38265;DHT22;24062;47.480;8.768;2023-02-16T02:51:57;-0.80;68.20
38265;DHT22;24062;47.480;8.768;2023-02-16T02:54:27;-0.80;68.10
38265;DHT22;24062;47.480;8.768;2023-02-16T02:57:16;-0.80;68.10
38265;DHT22;24062;47.480;8.768;2023-02-16T03:00:05;-0.80;68.00
38265;DHT22;24062;47.480;8.768;2023-02-16T03:02:54;-0.80;68.20
38265;DHT22;24062;47.480;8.768;2023-02-16T03:05:23;-0.90;68.20
38265;DHT22;24062;47.480;8.768;2023-02-16T03:07:54;-0.90;68.10
38265;DHT22;24062;47.480;8.768;2023-02-16T03:10:34;-1.00;68.20
38265;DHT22;24062;47.480;8.768;2023-02-16T03:13:23;-1.10;68.40
38265;DHT22;24062;47.480;8.768;2023-02-16T03:15:55;-1.00;68.90
38265;DHT22;24062;47.480;8.768;2023-02-16T03:18:24;-1.00;68.70
38265;DHT22;24062;47.480;8.768;2023-02-16T03:21:10;-1.00;68.40
38265;DHT22;24062;47.480;8.768;2023-02-16T03:23:57;-1.10;68.20
38265;DHT22;24062;47.480;8.768;2023-02-16T03:26:43;-1.20;68.40
38265;DHT22;24062;47.480;8.768;2023-02-16T03:29:28;-1.20;68.90
38265;DHT22;24062;47.480;8.768;2023-02-16T03:31:56;-1.20;68.90
38265;DHT22;24062;47.480;8.768;2023-02-16T03:34:24;-1.10;68.80
38265;DHT22;24062;47.480;8.768;2023-02-16T03:36:54;-1.10;68.80
38265;DHT22;24062;47.480;8.768;2023-02-16T03:39:23;-1.20;68.70
38265;DHT22;24062;47.480;8.768;2023-02-16T03:41:52;-1.20;68.90
38265;DHT22;24062;47.480;8.768;2023-02-16T03:44:20;-1.30;68.80
38265;DHT22;24062;47.480;8.768;2023-02-16T03:46:47;-1.20;69.20
38265;DHT22;24062;47.480;8.768;2023-02-16T03:49:16;-1.10;69.30
38265;DHT22;24062;47.480;8.768;2023-02-16T03:51:43;-1.10;69.20
38265;DHT22;24062;47.480;8.768;2023-02-16T03:54:10;-1.00;69.10
38265;DHT22;24062;47.480;8.768;2023-02-16T03:56:37;-1.00;69.00
38265;DHT22;24062;47.480;8.768;2023-02-16T03:59:04;-1.00;69.00
38265;DHT22;24062;47.480;8.768;2023-02-16T04:01:31;-1.10;68.40
38265;DHT22;24062;47.480;8.768;2023-02-16T04:03:58;-1.20;68.70
38265;DHT22;24062;47.480;8.768;2023-02-16T04:06:27;-1.10;68.90
38265;DHT22;24062;47.480;8.768;2023-02-16T04:08:53;-1.20;68.70
38265;DHT22;24062;47.480;8.768;2023-02-16T04:11:20;-1.20;68.90
38265;DHT22;24062;47.480;8.768;2023-02-16T04:14:05;-1.30;68.80
38265;DHT22;24062;47.480;8.768;2023-02-16T04:16:32;-1.30;69.10
38265;DHT22;24062;47.480;8.768;2023-02-16T04:18:59;-1.40;69.20
38265;DHT22;24062;47.480;8.768;2023-02-16T04:21:27;-1.40;69.50
38265;DHT22;24062;47.480;8.768;2023-02-16T04:23:54;-1.40;69.80
38265;DHT22;24062;47.480;8.768;2023-02-16T04:26:21;-1.30;70.10
38265;DHT22;24062;47.480;8.768;2023-02-16T04:28:48;-1.30;70.10
38265;DHT22;24062;47.480;8.768;2023-02-16T04:31:15;-1.20;70.70
38265;DHT22;24062;47.480;8.768;2023-02-16T04:33:42;-1.20;70.90
38265;DHT22;24062;47.480;8.768;2023-02-16T04:36:09;-1.10;71.30
38265;DHT22;24062;47.480;8.768;2023-02-16T04:38:37;-1.00;71.60
38265;DHT22;24062;47.480;8.768;2023-02-16T04:41:04;-0.90;71.70
38265;DHT22;24062;47.480;8.768;2023-02-16T04:43:31;-0.90;72.40
38265;DHT22;24062;47.480;8.768;2023-02-16T04:45:58;-0.90;71.50
38265;DHT22;24062;47.480;8.768;2023-02-16T04:48:26;-0.90;71.40
38265;DHT22;24062;47.480;8.768;2023-02-16T04:50:53;-0.90;71.10
38265;DHT22;24062;47.480;8.768;2023-02-16T04:53:20;-0.90;71.10
38265;DHT22;24062;47.480;8.768;2023-02-16T04:55:48;-0.90;70.70
38265;DHT22;24062;47.480;8.768;2023-02-16T04:58:16;-0.90;70.30
38265;DHT22;24062;47.480;8.768;2023-02-16T05:00:43;-1.00;70.30
38265;DHT22;24062;47.480;8.768;2023-02-16T05:03:10;-1.10;70.20
38265;DHT22;24062;47.480;8.768;2023-02-16T05:05:37;-1.20;70.40
38265;DHT22;24062;47.480;8.768;2023-02-16T05:08:04;-1.20;70.60
38265;DHT22;24062;47.480;8.768;2023-02-16T05:10:31;-1.10;70.70
38265;DHT22;24062;47.480;8.768;2023-02-16T05:12:59;-1.20;70.00
38265;DHT22;24062;47.480;8.768;2023-02-16T05:15:43;-1.30;70.40
38265;DHT22;24062;47.480;8.768;2023-02-16T05:18:10;-1.30;71.10
38265;DHT22;24062;47.480;8.768;2023-02-16T05:20:37;-1.30;71.00
38265;DHT22;24062;47.480;8.768;2023-02-16T05:23:22;-1.30;71.10
38265;DHT22;24062;47.480;8.768;2023-02-16T05:25:49;-1.30;70.70
38265;DHT22;24062;47.480;8.768;2023-02-16T05:28:17;-1.40;70.90
38265;DHT22;24062;47.480;8.768;2023-02-16T05:30:44;-1.40;71.00
38265;DHT22;24062;47.480;8.768;2023-02-16T05:33:11;-1.50;71.10
38265;DHT22;24062;47.480;8.768;2023-02-16T05:35:38;-1.50;71.30
38265;DHT22;24062;47.480;8.768;2023-02-16T05:38:05;-1.50;71.30
38265;DHT22;24062;47.480;8.768;2023-02-16T05:40:31;-1.50;71.60
38265;DHT22;24062;47.480;8.768;2023-02-16T05:42:58;-1.50;71.60
38265;DHT22;24062;47.480;8.768;2023-02-16T05:45:27;-1.60;71.50
38265;DHT22;24062;47.480;8.768;2023-02-16T05:47:54;-1.60;71.30
38265;DHT22;24062;47.480;8.768;2023-02-16T05:50:21;-1.60;71.40
38265;DHT22;24062;47.480;8.768;2023-02-16T05:52:48;-1.60;71.70
38265;DHT22;24062;47.480;8.768;2023-02-16T05:55:15;-1.50;71.80
38265;DHT22;24062;47.480;8.768;2023-02-16T05:57:41;-1.50;71.00
38265;DHT22;24062;47.480;8.768;2023-02-16T06:00:09;-1.70;71.00
38265;DHT22;24062;47.480;8.768;2023-02-16T06:02:38;-1.60;71.40
38265;DHT22;24062;47.480;8.768;2023-02-16T06:05:06;-1.60;71.30
38265;DHT22;24062;47.480;8.768;2023-02-16T06:07:33;-1.70;71.20
38265;DHT22;24062;47.480;8.768;2023-02-16T06:09:59;-1.70;71.70
38265;DHT22;24062;47.480;8.768;2023-02-16T06:12:26;-1.70;71.50
38265;DHT22;24062;47.480;8.768;2023-02-16T06:14:53;-1.70;72.10
38265;DHT22;24062;47.480;8.768;2023-02-16T06:17:21;-1.70;71.30
38265;DHT22;24062;47.480;8.768;2023-02-16T06:19:49;-1.80;71.50
38265;DHT22;24062;47.480;8.768;2023-02-16T06:22:16;-1.70;71.70
38265;DHT22;24062;47.480;8.768;2023-02-16T06:24:43;-1.70;72.10
38265;DHT22;24062;47.480;8.768;2023-02-16T06:27:10;-1.50;72.40
38265;DHT22;24062;47.480;8.768;2023-02-16T06:29:37;-1.50;71.60
38265;DHT22;24062;47.480;8.768;2023-02-16T06:32:04;-1.50;71.70
38265;DHT22;24062;47.480;8.768;2023-02-16T06:34:30;-1.60;71.70
38265;DHT22;24062;47.480;8.768;2023-02-16T06:36:59;-1.60;72.10
38265;DHT22;24062;47.480;8.768;2023-02-16T06:39:26;-1.50;72.60
38265;DHT22;24062;47.480;8.768;2023-02-16T06:41:53;-1.50;72.80
38265;DHT22;24062;47.480;8.768;2023-02-16T06:44:20;-1.50;72.50
38265;DHT22;24062;47.480;8.768;2023-02-16T06:46:47;-1.40;72.80
38265;DHT22;24062;47.480;8.768;2023-02-16T06:49:15;-1.40;72.60
38265;DHT22;24062;47.480;8.768;2023-02-16T06:51:44;-1.40;72.20
38265;DHT22;24062;47.480;8.768;2023-02-16T06:54:13;-1.40;72.20
38265;DHT22;24062;47.480;8.768;2023-02-16T06:56:40;-1.50;71.60
38265;DHT22;24062;47.480;8.768;2023-02-16T06:59:07;-1.60;71.60
38265;DHT22;24062;47.480;8.768;2023-02-16T07:01:34;-1.60;72.50
38265;DHT22;24062;47.480;8.768;2023-02-16T07:04:01;-1.60;72.60
38265;DHT22;24062;47.480;8.768;2023-02-16T07:06:28;-1.50;73.10
38265;DHT22;24062;47.480;8.768;2023-02-16T07:08:55;-1.40;73.20
38265;DHT22;24062;47.480;8.768;2023-02-16T07:11:23;-1.30;72.90
38265;DHT22;24062;47.480;8.768;2023-02-16T07:13:50;-1.30;72.60
38265;DHT22;24062;47.480;8.768;2023-02-16T07:16:17;-1.20;72.70
38265;DHT22;24062;47.480;8.768;2023-02-16T07:18:44;-1.30;72.60
38265;DHT22;24062;47.480;8.768;2023-02-16T07:21:12;-1.20;73.30
38265;DHT22;24062;47.480;8.768;2023-02-16T07:23:39;-1.20;73.30
38265;DHT22;24062;47.480;8.768;2023-02-16T07:26:06;-1.20;73.30
38265;DHT22;24062;47.480;8.768;2023-02-16T07:28:34;-1.10;73.80
38265;DHT22;24062;47.480;8.768;2023-02-16T07:31:05;-1.00;73.90
38265;DHT22;24062;47.480;8.768;2023-02-16T07:33:33;-0.90;74.10
38265;DHT22;24062;47.480;8.768;2023-02-16T07:36:00;-0.80;74.30
38265;DHT22;24062;47.480;8.768;2023-02-16T07:38:27;-0.70;74.30
38265;DHT22;24062;47.480;8.768;2023-02-16T07:40:55;-0.60;74.00
38265;DHT22;24062;47.480;8.768;2023-02-16T07:43:22;-0.60;73.90
38265;DHT22;24062;47.480;8.768;2023-02-16T07:45:51;-0.60;74.20
38265;DHT22;24062;47.480;8.768;2023-02-16T07:48:18;-0.50;74.60
38265;DHT22;24062;47.480;8.768;2023-02-16T07:50:45;-0.30;75.00
38265;DHT22;24062;47.480;8.768;2023-02-16T07:53:12;0.00;75.10
38265;DHT22;24062;47.480;8.768;2023-02-16T07:55:40;0.20;74.60
38265;DHT22;24062;47.480;8.768;2023-02-16T07:58:07;0.30;74.80
38265;DHT22;24062;47.480;8.768;2023-02-16T08:00:34;0.60;75.40
38265;DHT22;24062;47.480;8.768;2023-02-16T08:03:02;0.90;76.10
38265;DHT22;24062;47.480;8.768;2023-02-16T08:05:30;1.20;75.80
38265;DHT22;24062;47.480;8.768;2023-02-16T08:07:59;1.30;75.40
38265;DHT22;24062;47.480;8.768;2023-02-16T08:10:26;1.40;73.80
38265;DHT22;24062;47.480;8.768;2023-02-16T08:12:53;1.40;75.10
38265;DHT22;24062;47.480;8.768;2023-02-16T08:15:20;1.50;75.30
38265;DHT22;24062;47.480;8.768;2023-02-16T08:17:48;1.60;75.90
38265;DHT22;24062;47.480;8.768;2023-02-16T08:20:16;1.80;75.10
38265;DHT22;24062;47.480;8.768;2023-02-16T08:22:43;1.90;75.00
38265;DHT22;24062;47.480;8.768;2023-02-16T08:25:10;2.00;75.30
38265;DHT22;24062;47.480;8.768;2023-02-16T08:27:40;2.10;75.10
38265;DHT22;24062;47.480;8.768;2023-02-16T08:30:08;2.20;75.50
38265;DHT22;24062;47.480;8.768;2023-02-16T08:32:37;2.30;75.60
38265;DHT22;24062;47.480;8.768;2023-02-16T08:35:06;2.40;75.60
38265;DHT22;24062;47.480;8.768;2023-02-16T08:37:36;2.60;75.80
38265;DHT22;24062;47.480;8.768;2023-02-16T08:40:04;2.60;75.10
38265;DHT22;24062;47.480;8.768;2023-02-16T08:42:31;2.80;76.30
38265;DHT22;24062;47.480;8.768;2023-02-16T08:44:58;2.90;75.40
38265;DHT22;24062;47.480;8.768;2023-02-16T08:47:25;3.10;76.10
38265;DHT22;24062;47.480;8.768;2023-02-16T08:49:54;3.20;76.70
38265;DHT22;24062;47.480;8.768;2023-02-16T08:52:21;3.40;76.20
38265;DHT22;24062;47.480;8.768;2023-02-16T08:54:49;3.60;75.50
38265;DHT22;24062;47.480;8.768;2023-02-16T08:57:16;3.70;75.60
38265;DHT22;24062;47.480;8.768;2023-02-16T08:59:43;3.70;75.40
38265;DHT22;24062;47.480;8.768;2023-02-16T09:02:10;3.90;75.80
38265;DHT22;24062;47.480;8.768;2023-02-16T09:04:37;4.00;74.80
38265;DHT22;24062;47.480;8.768;2023-02-16T09:07:04;3.90;74.10
38265;DHT22;24062;47.480;8.768;2023-02-16T09:09:31;3.90;73.90
38265;DHT22;24062;47.480;8.768;2023-02-16T09:11:59;3.80;73.70
38265;DHT22;24062;47.480;8.768;2023-02-16T09:14:26;3.70;72.80
38265;DHT22;24062;47.480;8.768;2023-02-16T09:16:53;3.50;73.60
38265;DHT22;24062;47.480;8.768;2023-02-16T09:19:21;3.60;74.00
38265;DHT22;24062;47.480;8.768;2023-02-16T09:21:48;3.60;74.00
38265;DHT22;24062;47.480;8.768;2023-02-16T09:24:16;3.70;74.10
38265;DHT22;24062;47.480;8.768;2023-02-16T09:26:43;3.70;73.50
38265;DHT22;24062;47.480;8.768;2023-02-16T09:29:13;3.70;73.40
38265;DHT22;24062;47.480;8.768;2023-02-16T09:31:41;3.70;73.80
38265;DHT22;24062;47.480;8.768;2023-02-16T09:34:15;3.90;73.40
38265;DHT22;24062;47.480;8.768;2023-02-16T09:36:43;3.80;73.00
38265;DHT22;24062;47.480;8.768;2023-02-16T09:39:10;3.80;73.60
38265;DHT22;24062;47.480;8.768;2023-02-16T09:44:46;4.00;73.60
38265;DHT22;24062;47.480;8.768;2023-02-16T09:47:19;4.20;74.30
38265;DHT22;24062;47.480;8.768;2023-02-16T09:49:48;4.40;74.00
38265;DHT22;24062;47.480;8.768;2023-02-16T09:52:22;4.50;74.20
38265;DHT22;24062;47.480;8.768;2023-02-16T09:54:52;4.70;74.40
38265;DHT22;24062;47.480;8.768;2023-02-16T09:57:26;4.90;73.30
38265;DHT22;24062;47.480;8.768;2023-02-16T10:00:03;4.90;73.40
38265;DHT22;24062;47.480;8.768;2023-02-16T10:02:42;5.00;74.50
38265;DHT22;24062;47.480;8.768;2023-02-16T10:05:16;5.20;74.00
38265;DHT22;24062;47.480;8.768;2023-02-16T10:08:00;5.20;73.80
38265;DHT22;24062;47.480;8.768;2023-02-16T10:10:37;5.40;73.80
38265;DHT22;24062;47.480;8.768;2023-02-16T10:13:16;5.60;74.10
38265;DHT22;24062;47.480;8.768;2023-02-16T10:15:48;5.80;74.20
38265;DHT22;24062;47.480;8.768;2023-02-16T10:18:27;6.00;74.10
38265;DHT22;24062;47.480;8.768;2023-02-16T10:20:57;6.20;73.90
38265;DHT22;24062;47.480;8.768;2023-02-16T10:23:33;6.40;73.80
38265;DHT22;24062;47.480;8.768;2023-02-16T10:26:13;6.50;73.20
38265;DHT22;24062;47.480;8.768;2023-02-16T10:28:45;6.70;73.20
38265;DHT22;24062;47.480;8.768;2023-02-16T10:31:19;6.90;73.40
38265;DHT22;24062;47.480;8.768;2023-02-16T10:33:57;7.10;72.40
38265;DHT22;24062;47.480;8.768;2023-02-16T10:36:39;7.20;71.90
38265;DHT22;24062;47.480;8.768;2023-02-16T10:39:17;7.40;72.60
38265;DHT22;24062;47.480;8.768;2023-02-16T10:41:49;7.50;72.00
38265;DHT22;24062;47.480;8.768;2023-02-16T10:44:21;7.60;72.60
38265;DHT22;24062;47.480;8.768;2023-02-16T10:46:55;7.80;71.20
38265;DHT22;24062;47.480;8.768;2023-02-16T10:49:23;7.90;70.00
38265;DHT22;24062;47.480;8.768;2023-02-16T10:51:52;8.00;71.00
38265;DHT22;24062;47.480;8.768;2023-02-16T10:54:23;8.20;70.60
38265;DHT22;24062;47.480;8.768;2023-02-16T10:56:53;8.40;71.20
38265;DHT22;24062;47.480;8.768;2023-02-16T10:59:24;8.60;69.40
38265;DHT22;24062;47.480;8.768;2023-02-16T11:01:53;8.70;70.40
38265;DHT22;24062;47.480;8.768;2023-02-16T11:04:33;8.90;69.80
38265;DHT22;24062;47.480;8.768;2023-02-16T11:07:06;9.10;69.90
38265;DHT22;24062;47.480;8.768;2023-02-16T11:09:34;9.40;69.20
38265;DHT22;24062;47.480;8.768;2023-02-16T11:12:14;9.60;69.20
38265;DHT22;24062;47.480;8.768;2023-02-16T11:14:47;9.80;68.80
38265;DHT22;24062;47.480;8.768;2023-02-16T11:17:17;10.00;68.10
38265;DHT22;24062;47.480;8.768;2023-02-16T11:19:51;10.20;66.40
38265;DHT22;24062;47.480;8.768;2023-02-16T11:22:29;10.30;66.90
38265;DHT22;24062;47.480;8.768;2023-02-16T11:25:17;10.50;67.30
38265;DHT22;24062;47.480;8.768;2023-02-16T11:27:50;10.80;66.60
38265;DHT22;24062;47.480;8.768;2023-02-16T11:30:20;11.10;67.50
38265;DHT22;24062;47.480;8.768;2023-02-16T11:32:55;11.30;66.70
38265;DHT22;24062;47.480;8.768;2023-02-16T11:35:22;11.60;66.10
38265;DHT22;24062;47.480;8.768;2023-02-16T11:37:49;11.80;64.90
38265;DHT22;24062;47.480;8.768;2023-02-16T11:40:20;12.00;64.50
38265;DHT22;24062;47.480;8.768;2023-02-16T11:42:50;12.20;64.30
38265;DHT22;24062;47.480;8.768;2023-02-16T11:45:25;12.50;63.60
38265;DHT22;24062;47.480;8.768;2023-02-16T11:47:55;12.70;62.90
38265;DHT22;24062;47.480;8.768;2023-02-16T11:50:24;12.90;62.50
38265;DHT22;24062;47.480;8.768;2023-02-16T11:52:55;13.10;61.90
38265;DHT22;24062;47.480;8.768;2023-02-16T11:55:26;13.20;60.00
38265;DHT22;24062;47.480;8.768;2023-02-16T11:58:12;13.40;61.70
38265;DHT22;24062;47.480;8.768;2023-02-16T12:00:43;13.60;59.10
38265;DHT22;24062;47.480;8.768;2023-02-16T12:03:24;13.60;59.80
38265;DHT22;24062;47.480;8.768;2023-02-16T12:06:05;13.80;58.50
38265;DHT22;24062;47.480;8.768;2023-02-16T12:08:46;13.90;57.80
38265;DHT22;24062;47.480;8.768;2023-02-16T12:11:21;14.10;59.10
38265;DHT22;24062;47.480;8.768;2023-02-16T12:14:02;14.40;56.50
38265;DHT22;24062;47.480;8.768;2023-02-16T12:16:38;14.50;53.10
38265;DHT22;24062;47.480;8.768;2023-02-16T12:19:26;14.30;50.60
38265;DHT22;24062;47.480;8.768;2023-02-16T12:22:03;14.30;51.40
38265;DHT22;24062;47.480;8.768;2023-02-16T12:24:42;14.30;50.50
38265;DHT22;24062;47.480;8.768;2023-02-16T12:27:15;14.50;53.20
38265;DHT22;24062;47.480;8.768;2023-02-16T12:29:52;14.80;51.30
38265;DHT22;24062;47.480;8.768;2023-02-16T12:32:45;15.10;52.00
38265;DHT22;24062;47.480;8.768;2023-02-16T12:35:32;15.20;49.40
38265;DHT22;24062;47.480;8.768;2023-02-16T12:38:08;15.40;49.30
38265;DHT22;24062;47.480;8.768;2023-02-16T12:40:45;15.40;49.40
38265;DHT22;24062;47.480;8.768;2023-02-16T12:43:28;15.50;46.70
38265;DHT22;24062;47.480;8.768;2023-02-16T12:46:00;15.50;48.10
38265;DHT22;24062;47.480;8.768;2023-02-16T12:48:36;15.80;48.80
38265;DHT22;24062;47.480;8.768;2023-02-16T12:51:11;15.90;46.50
38265;DHT22;24062;47.480;8.768;2023-02-16T12:53:44;16.10;45.70
38265;DHT22;24062;47.480;8.768;2023-02-16T12:56:16;16.30;46.50
38265;DHT22;24062;47.480;8.768;2023-02-16T12:58:49;16.40;42.80
38265;DHT22;24062;47.480;8.768;2023-02-16T13:01:22;16.30;42.30
38265;DHT22;24062;47.480;8.768;2023-02-16T13:03:54;16.30;43.70
38265;DHT22;24062;47.480;8.768;2023-02-16T13:06:28;16.30;42.30
38265;DHT22;24062;47.480;8.768;2023-02-16T13:09:02;16.40;41.60
38265;DHT22;24062;47.480;8.768;2023-02-16T13:11:35;16.40;41.70
38265;DHT22;24062;47.480;8.768;2023-02-16T13:14:10;16.60;41.10
38265;DHT22;24062;47.480;8.768;2023-02-16T13:16:43;16.80;41.30
38265;DHT22;24062;47.480;8.768;2023-02-16T13:19:12;16.90;40.50
38265;DHT22;24062;47.480;8.768;2023-02-16T13:22:05;17.00;39.90
38265;DHT22;24062;47.480;8.768;2023-02-16T13:24:43;17.40;42.20
38265;DHT22;24062;47.480;8.768;2023-02-16T13:27:26;17.90;41.50
38265;DHT22;24062;47.480;8.768;2023-02-16T13:33:20;18.30;39.60
38265;DHT22;24062;47.480;8.768;2023-02-16T13:36:12;18.40;38.70
38265;DHT22;24062;47.480;8.768;2023-02-16T13:44:54;18.70;37.20
38265;DHT22;24062;47.480;8.768;2023-02-16T13:47:25;18.80;36.50
38265;DHT22;24062;47.480;8.768;2023-02-16T13:49:56;18.70;35.60
38265;DHT22;24062;47.480;8.768;2023-02-16T13:52:31;18.60;36.30
38265;DHT22;24062;47.480;8.768;2023-02-16T13:55:01;18.80;35.10
38265;DHT22;24062;47.480;8.768;2023-02-16T13:57:57;18.70;35.80
38265;DHT22;24062;47.480;8.768;2023-02-16T14:00:28;19.00;37.00
38265;DHT22;24062;47.480;8.768;2023-02-16T14:02:58;19.40;35.70
38265;DHT22;24062;47.480;8.768;2023-02-16T14:05:28;19.40;35.10
38265;DHT22;24062;47.480;8.768;2023-02-16T14:08:21;19.00;34.30
38265;DHT22;24062;47.480;8.768;2023-02-16T14:11:06;18.80;34.70
38265;DHT22;24062;47.480;8.768;2023-02-16T14:13:46;18.70;35.20
38265;DHT22;24062;47.480;8.768;2023-02-16T14:16:31;18.50;33.80
38265;DHT22;24062;47.480;8.768;2023-02-16T14:19:02;18.50;33.80
38265;DHT22;24062;47.480;8.768;2023-02-16T14:21:37;18.50;33.80
38265;DHT22;24062;47.480;8.768;2023-02-16T14:24:09;18.50;34.00
38265;DHT22;24062;47.480;8.768;2023-02-16T14:26:54;18.60;33.80
38265;DHT22;24062;47.480;8.768;2023-02-16T14:29:26;18.80;33.70
38265;DHT22;24062;47.480;8.768;2023-02-16T14:31:59;18.90;33.90
38265;DHT22;24062;47.480;8.768;2023-02-16T14:34:28;18.60;33.50
38265;DHT22;24062;47.480;8.768;2023-02-16T14:37:32;18.30;34.20
38265;DHT22;24062;47.480;8.768;2023-02-16T14:40:19;18.90;35.40
38265;DHT22;24062;47.480;8.768;2023-02-16T14:42:52;18.80;34.10
38265;DHT22;24062;47.480;8.768;2023-02-16T14:45:54;18.50;34.10
38265;DHT22;24062;47.480;8.768;2023-02-16T14:48:57;18.90;35.00
38265;DHT22;24062;47.480;8.768;2023-02-16T14:51:50;19.00;34.80
38265;DHT22;24062;47.480;8.768;2023-02-16T14:57:33;19.30;35.40
38265;DHT22;24062;47.480;8.768;2023-02-16T15:00:06;19.30;34.20
38265;DHT22;24062;47.480;8.768;2023-02-16T15:02:41;18.80;34.60
38265;DHT22;24062;47.480;8.768;2023-02-16T15:05:21;18.30;34.20
38265;DHT22;24062;47.480;8.768;2023-02-16T15:07:51;17.90;34.80
38265;DHT22;24062;47.480;8.768;2023-02-16T15:10:24;17.60;34.50
38265;DHT22;24062;47.480;8.768;2023-02-16T15:12:52;17.20;34.40
38265;DHT22;24062;47.480;8.768;2023-02-16T15:15:33;16.90;34.60
38265;DHT22;24062;47.480;8.768;2023-02-16T15:18:12;16.70;35.00
38265;DHT22;24062;47.480;8.768;2023-02-16T15:20:42;16.70;35.00
38265;DHT22;24062;47.480;8.768;2023-02-16T15:23:17;16.60;35.60
38265;DHT22;24062;47.480;8.768;2023-02-16T15:25:53;16.80;35.70
38265;DHT22;24062;47.480;8.768;2023-02-16T15:28:23;17.00;35.60
38265;DHT22;24062;47.480;8.768;2023-02-16T15:30:54;16.90;36.00
38265;DHT22;24062;47.480;8.768;2023-02-16T15:33:33;16.60;35.30
38265;DHT22;24062;47.480;8.768;2023-02-16T15:36:03;16.20;35.30
38265;DHT22;24062;47.480;8.768;2023-02-16T15:38:34;15.90;35.60
38265;DHT22;24062;47.480;8.768;2023-02-16T15:41:03;15.60;35.80
38265;DHT22;24062;47.480;8.768;2023-02-16T15:43:33;15.40;35.90
38265;DHT22;24062;47.480;8.768;2023-02-16T15:46:01;15.10;36.10
38265;DHT22;24062;47.480;8.768;2023-02-16T15:48:32;14.90;36.40
38265;DHT22;24062;47.480;8.768;2023-02-16T15:51:04;14.70;36.70
38265;DHT22;24062;47.480;8.768;2023-02-16T15:53:36;14.60;37.00
38265;DHT22;24062;47.480;8.768;2023-02-16T15:59:11;14.50;38.00
38265;DHT22;24062;47.480;8.768;2023-02-16T16:01:41;14.30;38.00
38265;DHT22;24062;47.480;8.768;2023-02-16T16:04:17;14.20;38.70
38265;DHT22;24062;47.480;8.768;2023-02-16T16:06:45;14.20;39.20
38265;DHT22;24062;47.480;8.768;2023-02-16T16:09:23;14.00;39.40
38265;DHT22;24062;47.480;8.768;2023-02-16T16:11:52;13.80;39.20
38265;DHT22;24062;47.480;8.768;2023-02-16T16:14:20;13.70;39.40
38265;DHT22;24062;47.480;8.768;2023-02-16T16:16:47;13.60;39.60
38265;DHT22;24062;47.480;8.768;2023-02-16T16:19:18;13.60;40.00
38265;DHT22;24062;47.480;8.768;2023-02-16T16:21:50;13.60;40.30
38265;DHT22;24062;47.480;8.768;2023-02-16T16:24:33;13.40;40.50
38265;DHT22;24062;47.480;8.768;2023-02-16T16:27:05;13.30;40.70
38265;DHT22;24062;47.480;8.768;2023-02-16T16:29:38;13.20;40.70